createdAt,value
2022-08-25T00:01:58.388Z,4.07
2022-08-25T00:04:25.599Z,3.35
2022-08-25T00:06:53.547Z,3.45
2022-08-25T00:09:24.152Z,3.35
2022-08-25T00:11:51.853Z,3.17
2022-08-25T00:14:24.189Z,3.53
2022-08-25T00:16:50.754Z,2.83
2022-08-25T00:19:26.782Z,3.10
2022-08-25T00:21:55.723Z,3.73
2022-08-25T00:24:22.485Z,3.10
2022-08-25T00:26:52.839Z,3.20
2022-08-25T00:29:19.656Z,2.70
2022-08-25T00:31:47.638Z,3.33
2022-08-25T00:34:18.562Z,3.20
2022-08-25T00:36:45.408Z,2.78
2022-08-25T00:39:12.204Z,2.83
2022-08-25T00:41:42.266Z,3.45
2022-08-25T00:44:11.911Z,3.25
2022-08-25T00:46:43.102Z,3.20
2022-08-25T00:49:16.408Z,3.45
2022-08-25T00:52:00.345Z,3.40
2022-08-25T00:54:32.106Z,2.92
2022-08-25T00:57:00.243Z,3.38
2022-08-25T00:59:28.005Z,3.20
2022-08-25T01:01:55.251Z,2.92
2022-08-25T01:04:22.584Z,3.10
2022-08-25T01:06:49.638Z,3.50
2022-08-25T01:09:17.623Z,3.20
2022-08-25T01:11:45.827Z,3.17
2022-08-25T01:14:16.130Z,2.90
2022-08-25T01:16:43.938Z,3.03
2022-08-25T01:19:15.530Z,2.85
2022-08-25T01:21:48.836Z,3.30
2022-08-25T01:24:40.024Z,3.13
2022-08-25T01:27:07.905Z,3.03
2022-08-25T01:29:36.115Z,3.17
2022-08-25T01:32:07.211Z,3.08
2022-08-25T01:34:37.125Z,3.00
2022-08-25T01:37:05.347Z,3.20
2022-08-25T01:39:38.962Z,3.13
2022-08-25T01:42:28.415Z,3.20
2022-08-25T01:44:55.289Z,3.05
2022-08-25T01:47:21.909Z,3.05
2022-08-25T01:49:48.624Z,3.20
2022-08-25T01:52:24.283Z,3.08
2022-08-25T01:54:51.172Z,2.97
2022-08-25T01:57:17.903Z,3.03
2022-08-25T01:59:45.088Z,3.05
2022-08-25T02:02:12.102Z,2.70
2022-08-25T02:04:39.530Z,3.20
2022-08-25T02:07:09.110Z,3.30
2022-08-25T02:09:37.501Z,3.20
2022-08-25T02:12:04.324Z,3.67
2022-08-25T02:14:31.025Z,3.30
2022-08-25T02:16:57.734Z,3.03
2022-08-25T02:19:25.922Z,3.00
2022-08-25T02:21:53.556Z,3.17
2022-08-25T02:24:20.190Z,2.97
2022-08-25T02:26:46.841Z,3.40
2022-08-25T02:29:13.754Z,3.25
2022-08-25T02:31:40.345Z,3.17
2022-08-25T02:34:08.723Z,3.15
2022-08-25T02:36:35.883Z,3.70
2022-08-25T02:39:03.184Z,3.13
2022-08-25T02:41:31.784Z,3.58
2022-08-25T02:43:59.878Z,3.45
2022-08-25T02:46:27.241Z,3.30
2022-08-25T02:48:55.269Z,3.42
2022-08-25T02:51:23.704Z,4.07
2022-08-25T02:53:50.472Z,3.75
2022-08-25T02:56:19.139Z,3.08
2022-08-25T02:58:47.453Z,3.30
2022-08-25T03:01:15.238Z,3.30
2022-08-25T03:03:44.541Z,3.58
2022-08-25T03:06:14.740Z,3.40
2022-08-25T03:08:42.417Z,3.30
2022-08-25T03:11:09.655Z,3.87
2022-08-25T03:13:36.323Z,3.75
2022-08-25T03:16:04.547Z,3.47
2022-08-25T03:18:31.389Z,3.53
2022-08-25T03:20:59.109Z,3.28
2022-08-25T03:23:25.922Z,3.20
2022-08-25T03:26:15.976Z,3.47
2022-08-25T03:28:42.688Z,3.22
2022-08-25T03:31:09.463Z,3.42
2022-08-25T03:33:38.352Z,3.40
2022-08-25T03:36:06.670Z,3.60
2022-08-25T03:38:33.405Z,3.58
2022-08-25T03:41:00.035Z,2.90
2022-08-25T03:43:26.518Z,3.42
2022-08-25T03:45:53.274Z,3.40
2022-08-25T03:48:20.003Z,3.72
2022-08-25T03:50:51.206Z,3.90
2022-08-25T03:53:19.024Z,3.90
2022-08-25T03:55:45.736Z,3.65
2022-08-25T03:58:12.405Z,3.88
2022-08-25T04:00:39.377Z,4.03
2022-08-25T04:03:06.205Z,3.35
2022-08-25T04:05:32.943Z,3.75
2022-08-25T04:08:01.747Z,4.00
2022-08-25T04:10:28.865Z,3.83
2022-08-25T04:12:55.996Z,3.75
2022-08-25T04:15:22.914Z,3.70
2022-08-25T04:17:50.529Z,4.47
2022-08-25T04:20:19.038Z,3.53
2022-08-25T04:22:45.716Z,4.00
2022-08-25T04:25:12.812Z,3.80
2022-08-25T04:27:40.148Z,4.00
2022-08-25T04:30:07.119Z,3.90
2022-08-25T04:32:36.244Z,4.32
2022-08-25T04:35:04.293Z,4.20
2022-08-25T04:37:31.099Z,4.07
2022-08-25T04:39:57.654Z,4.65
2022-08-25T04:42:26.332Z,5.20
2022-08-25T04:44:52.874Z,4.63
2022-08-25T04:47:19.349Z,4.47
2022-08-25T04:49:45.917Z,4.20
2022-08-25T04:52:13.147Z,4.30
2022-08-25T04:54:41.269Z,4.30
2022-08-25T04:57:07.911Z,4.18
2022-08-25T04:59:34.463Z,4.38
2022-08-25T05:02:05.610Z,4.43
2022-08-25T05:04:35.071Z,4.47
2022-08-25T05:07:02.037Z,4.10
2022-08-25T05:09:29.204Z,4.53
2022-08-25T05:11:59.832Z,4.70
2022-08-25T05:14:26.846Z,4.60
2022-08-25T05:16:57.987Z,4.40
2022-08-25T05:19:25.303Z,4.57
2022-08-25T05:21:52.477Z,4.72
2022-08-25T05:24:19.608Z,5.00
2022-08-25T05:26:46.278Z,4.50
2022-08-25T05:29:13.258Z,4.75
2022-08-25T05:31:43.926Z,4.82
2022-08-25T05:34:12.562Z,4.90
2022-08-25T05:36:43.249Z,4.90
2022-08-25T05:39:10.612Z,4.70
2022-08-25T05:41:37.255Z,4.53
2022-08-25T05:44:04.142Z,4.70
2022-08-25T05:46:31.873Z,5.07
2022-08-25T05:48:59.165Z,5.05
2022-08-25T05:51:26.625Z,5.32
2022-08-25T05:53:53.296Z,4.70
2022-08-25T05:56:20.112Z,4.95
2022-08-25T05:58:47.058Z,5.05
2022-08-25T06:01:45.504Z,5.60
2022-08-25T06:04:13.459Z,5.13
2022-08-25T06:06:40.411Z,5.40
2022-08-25T06:09:08.842Z,5.20
2022-08-25T06:14:03.078Z,5.15
2022-08-25T06:16:29.637Z,5.13
2022-08-25T06:18:56.343Z,4.75
2022-08-25T06:21:22.874Z,5.28
2022-08-25T06:23:50.317Z,5.30
2022-08-25T06:26:20.947Z,5.25
2022-08-25T06:28:49.128Z,4.90
2022-08-25T06:31:15.737Z,5.17
2022-08-25T06:33:42.399Z,5.00
2022-08-25T06:36:08.988Z,5.07
2022-08-25T06:38:36.091Z,4.97
2022-08-25T06:41:08.338Z,5.03
2022-08-25T06:43:35.015Z,4.97
2022-08-25T06:46:12.652Z,5.10
2022-08-25T06:48:39.432Z,4.78
2022-08-25T06:51:13.872Z,5.30
2022-08-25T06:53:41.595Z,4.90
2022-08-25T06:56:08.501Z,4.60
2022-08-25T06:58:35.388Z,4.70
2022-08-25T07:01:28.240Z,5.55
2022-08-25T07:04:00.603Z,4.53
2022-08-25T07:06:29.487Z,5.22
2022-08-25T07:08:55.982Z,4.60
2022-08-25T07:11:22.590Z,4.68
2022-08-25T07:13:50.511Z,5.10
2022-08-25T07:16:19.182Z,4.25
2022-08-25T07:18:47.313Z,4.38
2022-08-25T07:21:14.847Z,4.43
2022-08-25T07:23:41.953Z,4.60
2022-08-25T07:26:36.389Z,5.10
2022-08-25T07:29:01.830Z,5.30
2022-08-25T07:31:30.278Z,5.00
2022-08-25T07:34:16.369Z,4.97
2022-08-25T07:36:43.511Z,5.40
2022-08-25T07:39:10.263Z,5.28
2022-08-25T07:41:39.513Z,4.93
2022-08-25T07:44:06.846Z,5.05
2022-08-25T07:46:35.203Z,4.72
2022-08-25T07:52:03.254Z,4.88
2022-08-25T07:54:40.000Z,4.70
2022-08-25T07:57:09.174Z,5.10
2022-08-25T07:59:40.474Z,4.93
2022-08-25T08:02:17.784Z,4.55
2022-08-25T08:04:48.474Z,4.90
2022-08-25T08:07:41.954Z,5.22
2022-08-25T08:10:42.452Z,4.60
2022-08-25T08:12:58.662Z,4.32
2022-08-25T08:15:25.269Z,4.53
2022-08-25T08:17:56.323Z,4.47
2022-08-25T08:20:24.888Z,5.18
2022-08-25T08:22:51.544Z,4.30
2022-08-25T08:25:18.745Z,4.70
2022-08-25T08:27:48.832Z,5.10
2022-08-25T08:30:15.523Z,4.50
2022-08-25T08:33:08.726Z,4.25
2022-08-25T08:35:28.611Z,5.00
2022-08-25T08:37:55.088Z,4.50
2022-08-25T08:40:21.946Z,5.35
2022-08-25T08:43:02.497Z,4.75
2022-08-25T08:45:35.540Z,4.90
2022-08-25T08:48:33.115Z,5.28
2022-08-25T08:51:15.062Z,4.50
2022-08-25T08:53:57.125Z,5.03
2022-08-25T08:56:30.746Z,4.82
2022-08-25T08:59:09.939Z,5.57
2022-08-25T09:01:53.238Z,5.43
2022-08-25T09:04:29.582Z,5.45
2022-08-25T09:06:59.892Z,5.20
2022-08-25T09:09:35.727Z,5.25
2022-08-25T09:12:33.526Z,5.10
2022-08-25T09:15:12.835Z,5.53
2022-08-25T09:17:54.776Z,5.90
2022-08-25T09:20:39.141Z,5.05
2022-08-25T09:23:30.410Z,5.75
2022-08-25T09:26:30.894Z,5.28
2022-08-25T09:29:21.339Z,5.10
2022-08-25T09:31:48.534Z,5.65
2022-08-25T09:34:22.260Z,5.47
2022-08-25T09:36:52.815Z,5.40
2022-08-25T09:39:21.072Z,5.13
2022-08-25T09:41:56.016Z,5.22
2022-08-25T09:44:43.920Z,5.13
2022-08-25T09:50:01.177Z,5.07
2022-08-25T09:52:41.459Z,5.25
2022-08-25T09:55:08.367Z,5.22
2022-08-25T09:57:45.960Z,4.88
2022-08-25T10:00:18.857Z,4.90
2022-08-25T10:03:00.830Z,5.15
2022-08-25T10:05:35.444Z,4.80
2022-08-25T10:08:11.537Z,4.95
2022-08-25T10:10:46.219Z,5.65
2022-08-25T10:13:22.617Z,4.70
2022-08-25T10:16:05.452Z,4.50
2022-08-25T10:19:01.235Z,4.55
2022-08-25T10:21:28.163Z,5.00
2022-08-25T10:23:57.501Z,4.22
2022-08-25T10:26:39.336Z,4.00
2022-08-25T10:29:27.462Z,4.20
2022-08-25T10:31:56.007Z,3.70
2022-08-25T10:34:45.288Z,5.13
2022-08-25T10:37:38.651Z,4.10
2022-08-25T10:40:32.420Z,4.20
2022-08-25T10:43:07.913Z,4.65
2022-08-25T10:45:52.544Z,4.13
2022-08-25T10:49:04.136Z,4.00
2022-08-25T10:51:40.948Z,4.32
2022-08-25T10:54:26.133Z,4.13
2022-08-25T10:56:53.166Z,4.07
2022-08-25T10:59:34.642Z,4.15
2022-08-25T11:02:22.628Z,4.13
2022-08-25T11:07:33.443Z,3.35
2022-08-25T11:10:07.328Z,3.83
2022-08-25T11:12:38.416Z,4.47
2022-08-25T11:15:19.147Z,4.13
2022-08-25T11:17:53.884Z,3.75
2022-08-25T11:20:44.970Z,4.97
2022-08-25T11:23:20.193Z,4.30
2022-08-25T11:25:52.668Z,3.83
2022-08-25T11:28:39.451Z,3.97
2022-08-25T11:31:09.598Z,3.85
2022-08-25T11:36:12.829Z,3.47
2022-08-25T11:38:51.574Z,4.47
2022-08-25T11:41:34.655Z,4.00
2022-08-25T11:44:13.270Z,4.28
2022-08-25T11:47:03.794Z,4.03
2022-08-25T11:49:50.492Z,3.90
2022-08-25T11:52:46.000Z,3.58
2022-08-25T11:55:17.932Z,3.75
2022-08-25T11:57:53.598Z,4.13
2022-08-25T12:00:20.383Z,4.20
2022-08-25T12:02:53.013Z,4.00
2022-08-25T12:05:19.858Z,4.50
2022-08-25T12:08:12.494Z,4.53
2022-08-25T12:10:54.030Z,4.07
2022-08-25T12:13:51.247Z,4.05
2022-08-25T12:16:36.213Z,3.42
2022-08-25T12:19:24.417Z,4.10
2022-08-25T12:21:52.116Z,4.88
2022-08-25T12:24:25.109Z,4.50
2022-08-25T12:26:58.139Z,4.28
2022-08-25T12:30:18.517Z,4.85
2022-08-25T12:33:14.313Z,4.60
2022-08-25T12:36:00.975Z,4.43
2022-08-25T12:38:42.580Z,4.28
2022-08-25T12:41:13.704Z,4.38
2022-08-25T12:44:15.815Z,4.38
2022-08-25T12:46:44.632Z,4.55
2022-08-25T12:49:34.485Z,5.00
2022-08-25T12:52:07.071Z,4.88
2022-08-25T12:54:42.123Z,4.70
2022-08-25T12:57:25.039Z,4.68
2022-08-25T12:59:59.346Z,4.47
2022-08-25T13:02:51.628Z,4.85
2022-08-25T13:05:21.863Z,4.45
2022-08-25T13:08:18.130Z,4.50
2022-08-25T13:11:00.698Z,4.82
2022-08-25T13:13:57.549Z,4.68
2022-08-25T13:16:29.666Z,4.77
2022-08-25T13:18:59.585Z,4.50
2022-08-25T13:21:42.609Z,4.82
2022-08-25T13:24:21.366Z,5.03
2022-08-25T13:26:55.338Z,4.97
2022-08-25T13:29:25.350Z,4.35
2022-08-25T13:32:01.991Z,4.47
2022-08-25T13:34:38.387Z,4.55
2022-08-25T13:37:29.521Z,4.82
2022-08-25T13:40:25.962Z,4.35
2022-08-25T13:43:02.836Z,4.50
2022-08-25T13:45:32.403Z,4.68
2022-08-25T13:47:58.949Z,4.68
2022-08-25T13:50:26.485Z,4.90
2022-08-25T13:55:51.657Z,4.43
2022-08-25T13:58:38.990Z,4.50
2022-08-25T14:01:48.559Z,4.60
2022-08-25T14:04:27.601Z,4.68
2022-08-25T14:07:14.349Z,4.63
2022-08-25T14:09:48.897Z,5.13
2022-08-25T14:15:17.553Z,4.72
2022-08-25T14:17:48.692Z,4.80
2022-08-25T14:20:29.109Z,4.85
2022-08-25T14:22:59.359Z,4.65
2022-08-25T14:25:28.263Z,4.65
2022-08-25T14:28:16.367Z,4.38
2022-08-25T14:30:53.849Z,4.30
2022-08-25T14:33:27.660Z,4.40
2022-08-25T14:35:55.391Z,4.45
2022-08-25T14:38:22.923Z,4.50
2022-08-25T14:40:50.419Z,5.20
2022-08-25T14:43:17.392Z,4.93
2022-08-25T14:45:46.826Z,5.43
2022-08-25T14:48:26.880Z,4.53
2022-08-25T14:50:55.882Z,4.40
2022-08-25T14:53:22.397Z,4.45
2022-08-25T14:55:49.322Z,4.60
2022-08-25T14:58:18.508Z,4.75
2022-08-25T15:00:52.951Z,4.95
2022-08-25T15:03:37.655Z,4.63
2022-08-25T15:06:06.217Z,4.40
2022-08-25T15:08:51.250Z,4.55
2022-08-25T15:11:17.856Z,4.28
2022-08-25T15:13:49.347Z,4.38
2022-08-25T15:16:33.973Z,4.65
2022-08-25T15:19:06.522Z,4.47
2022-08-25T15:21:34.277Z,4.53
2022-08-25T15:24:02.555Z,4.60
2022-08-25T15:26:29.115Z,5.07
2022-08-25T15:28:55.678Z,5.18
2022-08-25T15:31:23.558Z,4.50
2022-08-25T15:33:50.255Z,4.53
2022-08-25T15:36:24.506Z,4.20
2022-08-25T15:38:52.608Z,4.75
2022-08-25T15:41:20.919Z,5.00
2022-08-25T15:43:51.623Z,4.50
2022-08-25T15:46:21.181Z,4.60
2022-08-25T15:48:47.734Z,4.95
2022-08-25T15:51:16.255Z,4.55
2022-08-25T15:53:42.956Z,4.30
2022-08-25T15:56:14.103Z,4.53
2022-08-25T15:58:49.771Z,3.90
2022-08-25T16:01:23.729Z,4.45
2022-08-25T16:03:51.988Z,4.60
2022-08-25T16:06:19.032Z,4.57
2022-08-25T16:08:45.952Z,4.40
2022-08-25T16:11:20.346Z,5.30
2022-08-25T16:13:48.927Z,5.72
2022-08-25T16:16:17.745Z,4.55
2022-08-25T16:18:45.083Z,4.15
2022-08-25T16:21:13.709Z,4.90
2022-08-25T16:23:41.122Z,4.78
2022-08-25T16:26:10.912Z,4.43
2022-08-25T16:28:43.650Z,4.40
2022-08-25T16:31:14.020Z,4.72
2022-08-25T16:36:14.585Z,4.25
2022-08-25T16:38:42.551Z,5.10
2022-08-25T16:41:22.474Z,4.47
2022-08-25T16:43:50.118Z,4.78
2022-08-25T16:46:19.156Z,5.00
2022-08-25T16:48:46.998Z,4.90
2022-08-25T16:51:16.127Z,4.45
2022-08-25T16:54:04.408Z,4.55
2022-08-25T16:56:35.076Z,4.30
2022-08-25T16:59:03.551Z,4.72
2022-08-25T17:01:36.461Z,4.45
2022-08-25T17:04:05.192Z,4.50
2022-08-25T17:06:37.159Z,4.32
2022-08-25T17:09:05.256Z,4.65
2022-08-25T17:11:35.938Z,4.63
2022-08-25T17:14:04.635Z,4.07
2022-08-25T17:16:37.896Z,4.85
2022-08-25T17:19:07.103Z,4.40
2022-08-25T17:21:40.595Z,4.97
2022-08-25T17:24:12.476Z,4.30
2022-08-25T17:26:41.556Z,4.37
2022-08-25T17:29:09.585Z,5.10
2022-08-25T17:31:40.123Z,4.47
2022-08-25T17:34:10.584Z,4.20
2022-08-25T17:36:38.246Z,5.07
2022-08-25T17:39:08.734Z,4.57
2022-08-25T17:41:37.589Z,4.07
2022-08-25T17:44:05.057Z,4.28
2022-08-25T17:46:32.166Z,4.30
2022-08-25T17:48:58.906Z,3.97
2022-08-25T17:54:07.464Z,3.97
2022-08-25T17:56:34.224Z,4.22
2022-08-25T17:59:02.052Z,4.20
2022-08-25T18:01:32.888Z,4.20
2022-08-25T18:03:59.718Z,4.00
2022-08-25T18:06:29.570Z,4.45
2022-08-25T18:08:59.939Z,4.20
2022-08-25T18:11:28.720Z,4.47
2022-08-25T18:13:56.757Z,4.43
2022-08-25T18:16:24.581Z,4.53
2022-08-25T18:18:52.894Z,4.10
2022-08-25T18:23:47.767Z,4.18
2022-08-25T18:26:15.427Z,4.20
2022-08-25T18:28:43.922Z,4.38
2022-08-25T18:31:12.216Z,4.30
2022-08-25T18:33:44.395Z,4.25
2022-08-25T18:36:11.735Z,4.00
2022-08-25T18:38:58.137Z,4.55
2022-08-25T18:41:26.067Z,3.90
2022-08-25T18:43:53.043Z,4.20
2022-08-25T18:46:19.938Z,4.07
2022-08-25T18:48:49.591Z,4.68
2022-08-25T18:51:22.874Z,4.30
2022-08-25T18:53:50.999Z,4.10
2022-08-25T18:56:19.250Z,4.18
2022-08-25T18:58:47.164Z,4.18
2022-08-25T19:01:15.893Z,4.20
2022-08-25T19:03:43.389Z,4.32
2022-08-25T19:06:10.661Z,3.97
2022-08-25T19:08:39.515Z,4.63
2022-08-25T19:11:09.735Z,4.35
2022-08-25T19:13:37.151Z,5.40
2022-08-25T19:16:20.480Z,4.57
2022-08-25T19:18:48.673Z,4.47
2022-08-25T19:21:15.410Z,4.03
2022-08-25T19:23:41.918Z,4.53
2022-08-25T19:26:17.389Z,4.72
2022-08-25T19:28:48.571Z,5.07
2022-08-25T19:31:18.169Z,5.30
2022-08-25T19:33:46.019Z,5.43
2022-08-25T19:36:14.105Z,5.55
2022-08-25T19:38:41.601Z,5.40
2022-08-25T19:41:10.450Z,5.73
2022-08-25T19:43:55.482Z,5.07
2022-08-25T19:46:24.532Z,5.50
2022-08-25T19:48:51.094Z,5.22
2022-08-25T19:51:19.315Z,4.55
2022-08-25T19:53:52.302Z,4.50
2022-08-25T19:56:21.547Z,5.30
2022-08-25T19:58:48.059Z,5.18
2022-08-25T20:01:18.145Z,5.55
2022-08-25T20:03:45.149Z,5.50
2022-08-25T20:06:11.764Z,5.43
2022-08-25T20:08:42.988Z,5.35
2022-08-25T20:11:09.806Z,5.55
2022-08-25T20:13:37.007Z,5.73
2022-08-25T20:16:04.198Z,5.68
2022-08-25T20:18:32.751Z,5.65
2022-08-25T20:21:00.548Z,5.38
2022-08-25T20:23:46.075Z,6.90
2022-08-25T20:26:12.673Z,7.38
2022-08-25T20:28:42.105Z,6.40
2022-08-25T20:31:09.205Z,5.75
2022-08-25T20:33:36.038Z,5.25
2022-08-25T20:36:04.686Z,6.15
2022-08-25T20:38:32.071Z,5.95
2022-08-25T20:43:29.545Z,7.07
2022-08-25T20:46:04.934Z,6.15
2022-08-25T20:48:31.814Z,6.30
2022-08-25T20:50:58.329Z,5.93
2022-08-25T20:53:25.953Z,6.40
2022-08-25T20:55:52.553Z,6.35
2022-08-25T20:58:20.346Z,6.20
2022-08-25T21:00:47.177Z,6.20
2022-08-25T21:03:14.870Z,6.38
2022-08-25T21:05:43.245Z,6.80
2022-08-25T21:10:37.781Z,6.45
2022-08-25T21:13:04.328Z,5.95
2022-08-25T21:15:31.352Z,5.50
2022-08-25T21:17:57.978Z,6.03
2022-08-25T21:20:26.176Z,5.68
2022-08-25T21:22:53.428Z,5.28
2022-08-25T21:25:21.657Z,6.10
2022-08-25T21:27:48.227Z,6.60
2022-08-25T21:30:15.869Z,6.90
2022-08-25T21:32:53.528Z,6.10
2022-08-25T21:35:28.881Z,5.70
2022-08-25T21:37:55.772Z,6.05
2022-08-25T21:40:22.902Z,6.45
2022-08-25T21:42:49.861Z,6.22
2022-08-25T21:45:16.472Z,6.15
2022-08-25T21:47:47.672Z,5.80
2022-08-25T21:50:14.181Z,5.88
2022-08-25T21:52:41.223Z,6.07
2022-08-25T21:55:15.961Z,6.47
2022-08-25T21:57:43.829Z,6.03
2022-08-25T22:00:12.589Z,5.80
2022-08-25T22:02:39.195Z,5.75
2022-08-25T22:05:09.254Z,5.75
2022-08-25T22:07:41.652Z,5.80
2022-08-25T22:10:09.392Z,7.20
2022-08-25T22:12:43.909Z,6.45
2022-08-25T22:15:12.472Z,5.68
2022-08-25T22:17:40.469Z,6.68
2022-08-25T22:20:08.323Z,6.30
2022-08-25T22:22:35.917Z,6.20
2022-08-25T22:25:03.949Z,5.97
2022-08-25T22:27:32.942Z,6.18
2022-08-25T22:30:00.566Z,6.38
2022-08-25T22:32:27.125Z,6.90
2022-08-25T22:34:53.876Z,6.38
2022-08-25T22:37:20.407Z,6.90
2022-08-25T22:39:47.037Z,6.20
2022-08-25T22:42:13.936Z,5.97
2022-08-25T22:44:42.446Z,6.32
2022-08-25T22:47:10.593Z,7.15
2022-08-25T22:49:39.323Z,6.32
2022-08-25T22:52:07.253Z,6.68
2022-08-25T22:54:36.673Z,7.00
2022-08-25T22:57:06.653Z,6.75
2022-08-25T22:59:33.998Z,7.10
2022-08-25T23:02:00.702Z,6.88
2022-08-25T23:04:27.415Z,6.80
2022-08-25T23:06:54.004Z,6.35
2022-08-25T23:09:21.456Z,6.82
2022-08-25T23:11:51.279Z,6.80
2022-08-25T23:14:18.824Z,6.90
2022-08-25T23:16:45.410Z,7.00
2022-08-25T23:19:14.278Z,7.20
2022-08-25T23:22:01.849Z,7.03
2022-08-25T23:24:30.633Z,7.63
2022-08-25T23:27:02.268Z,7.00
2022-08-25T23:29:31.771Z,6.38
2022-08-25T23:31:58.762Z,6.82
2022-08-25T23:34:26.041Z,7.10
2022-08-25T23:36:53.063Z,7.55
2022-08-25T23:39:21.703Z,6.82
2022-08-25T23:41:49.074Z,6.82
2022-08-25T23:44:17.092Z,7.40
2022-08-25T23:46:45.277Z,6.80
2022-08-25T23:49:18.366Z,7.28
2022-08-25T23:51:47.081Z,6.72
2022-08-25T23:54:13.746Z,7.78
2022-08-25T23:56:44.521Z,7.88
2022-08-25T23:59:18.389Z,7.05
